Time;durP1;ratioP1;P1;durP2;ratioP2;P2;SDS_P1;SDS_P2;PMS_P1;PMS_P2;Temp;Humidity;BMP_temperature;BMP_pressure;BME280_temperature;BME280_humidity;BME280_pressure;Samples;Min_cycle;Max_cycle;Signal;HPM_P1;HPM_P2
2023/04/23 03:01:10;;;;;;;5.47;2.53;;;13.80;95.20;;;;;;5901749;23;89045;-67
2023/04/23 03:03:36;;;;;;;8.13;2.95;;;13.70;95.70;;;;;;4886965;28;88058;-67
2023/04/23 03:06:02;;;;;;;6.45;3.13;;;13.70;95.80;;;;;;4883615;28;90501;-67
2023/04/23 03:08:28;;;;;;;5.30;2.42;;;13.70;95.90;;;;;;4899291;28;87698;-67
2023/04/23 03:10:53;;;;;;;6.07;2.28;;;13.70;96.00;;;;;;4910250;28;87682;-68
2023/04/23 03:13:19;;;;;;;7.03;2.03;;;13.60;95.70;;;;;;4889812;28;89134;-67
2023/04/23 03:15:45;;;;;;;5.20;2.13;;;13.60;96.10;;;;;;4896364;28;87454;-67
2023/04/23 03:18:10;;;;;;;5.22;2.20;;;13.50;96.20;;;;;;4894917;28;87549;-67
2023/04/23 03:20:36;;;;;;;4.82;1.83;;;13.50;96.30;;;;;;4892543;28;87503;-68
2023/04/23 03:23:05;;;;;;;3.92;1.45;;;13.50;96.30;;;;;;4895744;28;88486;-67
2023/04/23 03:25:34;;;;;;;5.88;1.95;;;13.50;96.40;;;;;;4892888;28;89240;-67
2023/04/23 03:27:59;;;;;;;3.40;1.40;;;13.40;96.60;;;;;;4895030;28;87518;-68
2023/04/23 03:30:26;;;;;;;4.38;1.17;;;13.30;96.60;;;;;;4892434;28;86928;-67
2023/04/23 03:32:55;;;;;;;6.57;1.20;;;13.30;96.40;;;;;;4894451;28;88172;-68
2023/04/23 03:35:20;;;;;;;3.75;1.13;;;13.30;96.50;;;;;;4890471;28;88728;-68
2023/04/23 03:37:46;;;;;;;6.45;1.40;;;13.30;96.60;;;;;;4891657;28;88502;-67
2023/04/23 03:40:12;;;;;;;3.55;1.30;;;13.30;96.50;;;;;;4891323;28;89147;-67
2023/04/23 03:42:37;;;;;;;2.88;1.05;;;13.30;96.60;;;;;;4889376;28;88058;-68
2023/04/23 03:45:03;;;;;;;3.78;1.60;;;13.30;96.50;;;;;;4890142;28;89651;-68
2023/04/23 03:47:29;;;;;;;3.20;1.42;;;13.30;96.90;;;;;;4886599;28;88896;-67
2023/04/23 03:49:55;;;;;;;2.90;1.48;;;13.30;97.10;;;;;;4882655;28;87670;-67
2023/04/23 03:52:21;;;;;;;3.63;1.05;;;13.20;97.10;;;;;;4890445;28;89371;-67
2023/04/23 03:54:47;;;;;;;4.43;1.50;;;13.20;97.40;;;;;;4895512;28;87353;-67
2023/04/23 03:57:13;;;;;;;5.22;1.48;;;13.20;97.50;;;;;;4893172;28;88679;-67
2023/04/23 03:59:38;;;;;;;5.00;1.42;;;13.10;97.60;;;;;;4892887;28;87907;-68
2023/04/23 04:02:05;;;;;;;4.72;1.30;;;13.10;97.30;;;;;;4879503;28;88744;-68
2023/04/23 04:04:31;;;;;;;4.63;1.40;;;13.10;97.30;;;;;;4867296;28;88466;-67
2023/04/23 04:06:59;;;;;;;4.07;1.42;;;13.10;97.80;;;;;;4875643;28;88664;-67
2023/04/23 04:09:25;;;;;;;3.95;1.60;;;13.00;98.30;;;;;;4861654;28;87704;-67
2023/04/23 04:11:52;;;;;;;4.43;1.48;;;13.00;98.30;;;;;;4870309;28;88649;-67
2023/04/23 04:14:18;;;;;;;3.80;1.50;;;13.00;97.80;;;;;;4875917;28;88450;-67
2023/04/23 04:16:44;;;;;;;3.67;1.23;;;13.00;98.10;;;;;;4870298;28;87392;-67
2023/04/23 04:19:10;;;;;;;4.03;1.45;;;13.00;97.90;;;;;;4874306;28;86768;-67
2023/04/23 04:21:36;;;;;;;3.63;0.88;;;13.10;98.20;;;;;;4871901;28;87691;-67
2023/04/23 04:24:03;;;;;;;3.28;1.30;;;13.10;97.80;;;;;;4874140;28;87313;-67
2023/04/23 04:26:31;;;;;;;2.40;0.90;;;13.10;97.60;;;;;;4872469;28;90216;-67
2023/04/23 04:29:00;;;;;;;3.72;0.95;;;13.10;97.70;;;;;;4875687;28;87708;-67
2023/04/23 04:31:27;;;;;;;4.88;1.00;;;13.10;97.30;;;;;;4872829;28;88966;-67
2023/04/23 04:33:54;;;;;;;2.22;0.73;;;13.10;97.00;;;;;;4875301;28;88960;-67
2023/04/23 04:36:20;;;;;;;3.63;0.70;;;13.10;96.30;;;;;;4875574;28;88880;-68
2023/04/23 04:38:46;;;;;;;4.60;0.95;;;13.10;96.30;;;;;;4876914;28;87435;-68
2023/04/23 04:41:12;;;;;;;2.15;0.73;;;13.10;96.20;;;;;;4877292;28;88863;-68
2023/04/23 04:43:39;;;;;;;4.43;1.23;;;13.20;96.00;;;;;;4881835;28;88345;-67
2023/04/23 04:46:04;;;;;;;3.13;1.20;;;13.20;95.80;;;;;;4878549;28;87999;-67
2023/04/23 04:48:30;;;;;;;3.28;1.23;;;13.20;96.00;;;;;;4883026;28;87175;-68
2023/04/23 04:50:56;;;;;;;3.60;1.20;;;13.20;96.50;;;;;;4879797;28;89774;-67
2023/04/23 04:53:22;;;;;;;3.95;1.10;;;13.20;96.70;;;;;;4882293;28;89593;-67
2023/04/23 04:55:48;;;;;;;3.80;1.25;;;13.20;96.60;;;;;;4878734;28;89078;-67
2023/04/23 04:58:14;;;;;;;4.15;1.30;;;13.10;96.50;;;;;;4877301;28;87671;-67
2023/04/23 05:00:40;;;;;;;2.72;1.00;;;13.10;96.60;;;;;;4877699;28;89004;-67
2023/04/23 05:03:06;;;;;;;2.75;0.90;;;13.10;96.60;;;;;;4875994;28;87590;-67
2023/04/23 05:05:33;;;;;;;3.33;1.20;;;13.10;96.60;;;;;;4877368;28;88548;-69
2023/04/23 05:08:00;;;;;;;4.30;1.65;;;13.00;97.20;;;;;;4876833;28;88430;-67
2023/04/23 05:10:27;;;;;;;4.07;1.00;;;12.80;97.40;;;;;;4877158;28;87394;-68
2023/04/23 05:12:54;;;;;;;4.43;1.25;;;12.80;98.20;;;;;;4872406;28;88007;-68
2023/04/23 05:15:20;;;;;;;3.65;1.23;;;12.80;98.40;;;;;;4874382;28;88549;-67
2023/04/23 05:17:46;;;;;;;3.65;1.00;;;12.90;98.70;;;;;;4875879;28;88632;-67
2023/04/23 05:20:13;;;;;;;4.13;0.95;;;12.90;98.40;;;;;;4877635;28;87763;-67
2023/04/23 05:22:40;;;;;;;3.35;0.75;;;12.90;98.10;;;;;;4875503;28;87982;-67
2023/04/23 05:25:07;;;;;;;3.47;0.82;;;12.80;97.90;;;;;;4878953;28;87559;-68
2023/04/23 05:27:33;;;;;;;2.72;0.70;;;12.80;98.10;;;;;;4879222;28;87485;-68
2023/04/23 05:30:03;;;;;;;1.92;0.52;;;12.80;98.50;;;;;;4875462;28;88195;-67
2023/04/23 05:32:29;;;;;;;3.92;0.80;;;12.80;98.40;;;;;;4878083;28;89688;-67
2023/04/23 05:34:55;;;;;;;3.28;0.50;;;12.80;98.60;;;;;;4872904;28;87472;-67
2023/04/23 05:37:21;;;;;;;3.83;0.75;;;12.90;98.10;;;;;;4878921;28;87694;-67
2023/04/23 05:39:47;;;;;;;3.08;0.90;;;12.90;98.70;;;;;;4879697;28;88222;-67
2023/04/23 05:42:12;;;;;;;3.55;0.90;;;13.00;98.60;;;;;;4877625;28;88142;-67
2023/04/23 05:44:40;;;;;;;1.85;0.43;;;13.10;98.30;;;;;;4874014;28;87558;-67
2023/04/23 05:47:07;;;;;;;2.35;0.52;;;13.20;97.60;;;;;;4859200;28;89095;-68
2023/04/23 05:49:34;;;;;;;6.82;0.77;;;13.20;96.50;;;;;;4866108;28;89502;-68
2023/04/23 05:52:01;;;;;;;2.15;0.60;;;13.20;97.30;;;;;;4872681;28;88775;-68
2023/04/23 05:54:27;;;;;;;2.72;0.60;;;13.30;97.10;;;;;;4871694;28;88607;-69
2023/04/23 05:56:53;;;;;;;2.13;0.55;;;13.30;97.40;;;;;;4872713;28;88341;-68
2023/04/23 05:59:19;;;;;;;3.42;0.43;;;13.30;97.20;;;;;;4868131;28;89343;-68
2023/04/23 06:01:46;;;;;;;2.25;0.50;;;13.30;96.80;;;;;;4850507;28;91779;-67
2023/04/23 06:04:12;;;;;;;6.20;0.73;;;13.40;96.90;;;;;;4860717;28;88663;-68
2023/04/23 06:06:38;;;;;;;1.60;0.40;;;13.40;96.40;;;;;;4867093;28;89093;-68
2023/04/23 06:09:03;;;;;;;2.47;0.32;;;13.50;96.50;;;;;;4860158;28;88442;-68
2023/04/23 06:11:31;;;;;;;3.50;0.65;;;13.50;95.20;;;;;;4866380;28;89257;-68
2023/04/23 06:13:57;;;;;;;3.38;0.60;;;13.50;96.10;;;;;;4861244;28;88957;-68
2023/04/23 06:16:23;;;;;;;3.10;0.45;;;13.50;96.00;;;;;;4859689;28;89216;-70
2023/04/23 06:18:49;;;;;;;2.10;0.57;;;13.60;95.50;;;;;;4865080;28;88532;-68
2023/04/23 06:21:15;;;;;;;3.05;0.60;;;13.60;95.70;;;;;;4868790;28;88525;-69
2023/04/23 06:23:40;;;;;;;5.07;0.90;;;13.60;95.60;;;;;;4869151;28;89928;-68
2023/04/23 06:26:06;;;;;;;2.80;0.80;;;13.70;95.40;;;;;;4861406;28;88793;-69
2023/04/23 06:28:32;;;;;;;2.20;0.52;;;13.70;95.40;;;;;;4870799;28;89717;-68
2023/04/23 06:30:57;;;;;;;3.30;0.50;;;13.80;94.10;;;;;;4869233;28;88111;-68
2023/04/23 06:33:23;;;;;;;2.78;0.50;;;13.90;93.80;;;;;;4870081;28;88063;-69
2023/04/23 06:35:49;;;;;;;5.72;0.70;;;14.00;93.90;;;;;;4864581;28;87538;-68
2023/04/23 06:38:14;;;;;;;1.85;0.60;;;14.10;93.60;;;;;;4870811;28;87643;-68
2023/04/23 06:40:40;;;;;;;2.05;0.40;;;14.20;93.60;;;;;;4866034;28;87583;-68
2023/04/23 06:43:06;;;;;;;4.05;0.30;;;14.30;92.90;;;;;;4877053;28;88027;-67
2023/04/23 06:45:33;;;;;;;3.15;0.40;;;14.40;92.60;;;;;;4880482;28;87049;-68
2023/04/23 06:47:58;;;;;;;2.15;0.30;;;14.50;92.20;;;;;;4878485;28;87399;-68
2023/04/23 06:50:25;;;;;;;2.00;0.77;;;14.50;91.40;;;;;;4884599;28;87588;-68
2023/04/23 06:52:51;;;;;;;2.33;0.45;;;14.60;91.70;;;;;;4874254;28;89713;-68
2023/04/23 06:55:17;;;;;;;3.15;0.38;;;14.70;91.40;;;;;;4875951;28;87668;-68
2023/04/23 06:57:43;;;;;;;2.22;0.50;;;14.70;91.40;;;;;;4885842;28;88802;-68
2023/04/23 07:00:09;;;;;;;2.33;0.30;;;14.70;91.30;;;;;;4882138;28;87805;-68
2023/04/23 07:02:36;;;;;;;1.88;0.30;;;14.70;91.50;;;;;;4879343;28;88197;-68
2023/04/23 07:05:02;;;;;;;2.97;0.30;;;14.80;91.00;;;;;;4881434;28;87474;-68
2023/04/23 07:07:28;;;;;;;2.13;0.30;;;14.80;91.30;;;;;;4873460;28;89102;-68
2023/04/23 07:09:54;;;;;;;3.08;0.30;;;14.80;90.40;;;;;;4875208;28;88566;-68
2023/04/23 07:12:20;;;;;;;1.52;0.40;;;14.90;90.90;;;;;;4885914;28;87540;-68
2023/04/23 07:14:45;;;;;;;2.95;0.35;;;14.90;90.30;;;;;;4877421;28;89041;-69
2023/04/23 07:17:11;;;;;;;1.08;0.28;;;15.00;91.00;;;;;;4871088;28;89478;-68
2023/04/23 07:19:37;;;;;;;1.35;0.32;;;15.10;90.80;;;;;;4877628;28;88487;-68
2023/04/23 07:22:03;;;;;;;27.05;13.02;;;15.10;90.70;;;;;;4870861;28;87228;-69
2023/04/23 07:24:29;;;;;;;7.07;2.15;;;15.00;90.00;;;;;;4879052;28;87343;-68
2023/04/23 07:26:55;;;;;;;2.42;0.38;;;15.00;89.90;;;;;;4878461;28;88970;-68
2023/04/23 07:29:20;;;;;;;1.45;0.30;;;15.10;90.00;;;;;;4878534;28;87695;-68
2023/04/23 07:31:47;;;;;;;2.13;0.40;;;15.00;88.30;;;;;;4879450;28;89204;-68
2023/04/23 07:34:13;;;;;;;1.50;0.30;;;15.00;88.10;;;;;;4874546;28;86875;-68
2023/04/23 07:36:39;;;;;;;1.23;0.30;;;15.10;87.80;;;;;;4875916;28;88297;-68
2023/04/23 07:39:05;;;;;;;1.73;0.20;;;15.20;88.90;;;;;;4879002;28;88922;-68
2023/04/23 07:41:31;;;;;;;1.05;0.30;;;15.30;88.90;;;;;;4874307;28;88417;-68
2023/04/23 07:43:57;;;;;;;1.95;0.20;;;15.40;87.50;;;;;;4876498;28;87527;-68
2023/04/23 07:46:23;;;;;;;0.88;0.20;;;15.50;86.70;;;;;;4878490;28;87683;-68
2023/04/23 07:48:48;;;;;;;0.85;0.20;;;15.50;85.60;;;;;;4871494;28;88853;-68
2023/04/23 07:51:15;;;;;;;1.38;0.28;;;15.70;86.90;;;;;;4871888;28;87525;-69
2023/04/23 07:53:40;;;;;;;1.45;0.30;;;15.80;85.20;;;;;;4871577;28;88480;-70
2023/04/23 07:56:06;;;;;;;1.48;0.30;;;16.00;85.20;;;;;;4887649;28;88191;-69
2023/04/23 07:58:32;;;;;;;1.60;0.20;;;16.00;83.40;;;;;;4883533;28;88328;-68
2023/04/23 08:00:57;;;;;;;1.77;0.30;;;16.10;82.80;;;;;;4888309;28;87535;-68
2023/04/23 08:03:23;;;;;;;1.50;0.32;;;16.00;85.30;;;;;;4883974;28;87867;-68
2023/04/23 08:05:49;;;;;;;1.55;0.40;;;16.10;83.00;;;;;;4878615;28;89412;-68
2023/04/23 08:08:15;;;;;;;1.70;0.30;;;16.10;84.10;;;;;;4884336;28;88890;-69
2023/04/23 08:10:41;;;;;;;1.02;0.20;;;16.30;83.60;;;;;;4877927;28;87408;-69
2023/04/23 08:13:07;;;;;;;2.22;0.30;;;16.50;82.50;;;;;;4877365;28;87788;-69
2023/04/23 08:15:33;;;;;;;1.25;0.30;;;16.80;80.80;;;;;;4883820;28;89275;-68
2023/04/23 08:17:58;;;;;;;1.13;0.25;;;16.90;81.20;;;;;;4883600;28;87820;-69
2023/04/23 08:20:24;;;;;;;1.05;0.20;;;17.10;79.80;;;;;;4883358;28;87523;-68
2023/04/23 08:22:52;;;;;;;1.15;0.32;;;17.30;77.70;;;;;;4885038;28;86569;-69
2023/04/23 08:25:19;;;;;;;1.25;0.30;;;17.50;78.90;;;;;;4875294;28;89729;-69
2023/04/23 08:27:45;;;;;;;2.00;0.35;;;17.90;78.80;;;;;;4883862;28;87412;-69
2023/04/23 08:30:11;;;;;;;2.00;0.40;;;18.10;76.40;;;;;;4883235;28;88239;-69
2023/04/23 08:32:39;;;;;;;2.30;0.30;;;18.30;76.20;;;;;;4884084;28;87423;-69
2023/04/23 08:35:06;;;;;;;1.15;0.25;;;18.50;76.70;;;;;;4883706;28;88201;-69
2023/04/23 08:37:32;;;;;;;1.58;0.50;;;18.80;73.60;;;;;;4883875;28;87449;-69
2023/04/23 08:39:59;;;;;;;1.17;0.10;;;19.30;71.80;;;;;;4884183;28;87259;-69
2023/04/23 08:42:46;;;;;;;1.10;0.30;;;19.70;67.20;;;;;;4881052;28;87457;-70
2023/04/23 08:45:13;;;;;;;1.23;0.30;;;21.10;61.80;;;;;;4883599;28;87344;-70
2023/04/23 08:47:43;;;;;;;2.28;0.20;;;22.00;62.20;;;;;;4883823;28;88273;-70
2023/04/23 08:50:16;;;;;;;1.20;0.20;;;22.50;60.10;;;;;;4883501;28;87473;-70
2023/04/23 08:52:49;;;;;;;2.45;0.30;;;22.70;57.00;;;;;;4871238;28;87391;-70
2023/04/23 08:55:17;;;;;;;0.90;0.32;;;22.70;56.40;;;;;;4882815;28;89040;-70
2023/04/23 08:57:44;;;;;;;1.55;0.43;;;23.10;56.20;;;;;;4883690;28;87446;-70
2023/04/23 09:00:12;;;;;;;1.58;0.43;;;23.90;55.10;;;;;;4882255;28;87450;-70
2023/04/23 09:02:42;;;;;;;2.00;0.43;;;25.20;52.60;;;;;;4880590;28;87320;-70
2023/04/23 09:05:08;;;;;;;3.10;0.52;;;24.50;52.10;;;;;;4877624;28;88714;-70
2023/04/23 09:07:34;;;;;;;1.73;0.50;;;24.40;52.90;;;;;;4882696;28;87922;-70
2023/04/23 09:10:01;;;;;;;2.35;1.20;;;24.80;53.80;;;;;;4882666;28;87466;-70
2023/04/23 09:12:27;;;;;;;2.88;1.10;;;26.10;52.90;;;;;;4882610;28;86855;-71
2023/04/23 09:14:53;;;;;;;2.47;1.63;;;29.30;49.50;;;;;;4883480;28;87689;-71
2023/04/23 09:17:20;;;;;;;2.35;1.30;;;31.60;45.60;;;;;;4881575;28;88373;-72
2023/04/23 09:19:45;;;;;;;2.33;1.40;;;33.00;42.40;;;;;;4882763;28;88315;-72
2023/04/23 09:22:11;;;;;;;1.85;1.17;;;33.80;41.40;;;;;;4882656;28;87469;-70
2023/04/23 09:24:40;;;;;;;2.10;1.15;;;34.70;39.00;;;;;;4882668;28;88171;-70
2023/04/23 09:27:06;;;;;;;2.53;1.65;;;35.40;39.20;;;;;;4882535;28;87432;-70
2023/04/23 09:29:32;;;;;;;2.13;1.73;;;37.00;37.40;;;;;;4882867;28;87504;-70
2023/04/23 09:32:08;;;;;;;2.80;1.45;;;38.10;35.90;;;;;;4882768;28;87853;-70
2023/04/23 09:34:37;;;;;;;3.35;2.78;;;39.00;35.00;;;;;;4878673;28;88484;-70
2023/04/23 09:37:06;;;;;;;2.90;1.98;;;39.30;34.20;;;;;;4882204;28;87355;-70
2023/04/23 09:39:33;;;;;;;3.15;2.83;;;40.00;35.20;;;;;;4882389;28;87333;-71
2023/04/23 09:42:03;;;;;;;3.03;1.67;;;40.90;33.80;;;;;;4883154;28;87393;-71
2023/04/23 09:44:32;;;;;;;2.08;1.65;;;40.90;33.00;;;;;;4882328;28;88653;-71
2023/04/23 09:47:08;;;;;;;3.47;1.35;;;38.50;32.90;;;;;;4881641;28;89603;-70
2023/04/23 09:49:45;;;;;;;2.83;1.45;;;35.10;35.20;;;;;;4867578;28;87247;-69
2023/04/23 09:52:11;;;;;;;1.73;0.73;;;32.40;37.60;;;;;;4877662;28;87245;-69
2023/04/23 09:54:36;;;;;;;1.92;0.80;;;30.10;38.60;;;;;;4882530;28;88181;-69
2023/04/23 09:57:07;;;;;;;2.15;1.00;;;30.10;40.40;;;;;;4881630;28;87422;-70
2023/04/23 09:59:35;;;;;;;4.22;1.55;;;30.40;39.40;;;;;;4882957;28;87187;-70
2023/04/23 10:02:06;;;;;;;2.88;0.88;;;31.30;39.10;;;;;;4882416;28;86487;-69
2023/04/23 10:04:33;;;;;;;1.58;1.17;;;31.90;36.50;;;;;;4881988;28;88288;-69
2023/04/23 10:07:01;;;;;;;1.85;0.85;;;32.20;38.10;;;;;;4875821;28;87513;-70
2023/04/23 10:09:28;;;;;;;2.30;0.98;;;31.80;39.60;;;;;;4876709;28;88261;-69
2023/04/23 10:11:56;;;;;;;1.85;0.70;;;31.70;36.70;;;;;;4882878;28;87618;-69
2023/04/23 10:14:22;;;;;;;2.15;1.08;;;31.30;37.20;;;;;;4881899;28;87346;-69
2023/04/23 10:16:59;;;;;;;1.83;0.80;;;30.60;39.80;;;;;;4882143;28;88211;-69
2023/04/23 10:19:28;;;;;;;3.65;0.60;;;29.80;41.70;;;;;;4882421;28;87314;-69
2023/04/23 10:21:56;;;;;;;1.50;0.50;;;29.40;40.70;;;;;;4882796;28;87376;-69
2023/04/23 10:24:24;;;;;;;0.80;0.30;;;28.70;40.50;;;;;;4872686;28;88035;-71
2023/04/23 10:26:52;;;;;;;1.15;0.30;;;27.90;41.70;;;;;;4880560;28;87341;-71
2023/04/23 10:29:25;;;;;;;1.58;0.35;;;27.10;41.00;;;;;;4882671;28;87420;-70
2023/04/23 10:31:53;;;;;;;1.23;0.57;;;26.20;42.90;;;;;;4882087;28;87642;-70
2023/04/23 10:34:19;;;;;;;1.67;0.55;;;25.50;45.10;;;;;;4880144;28;89084;-70
2023/04/23 10:36:45;;;;;;;3.13;0.45;;;25.30;44.40;;;;;;4884377;28;88217;-71
2023/04/23 10:39:12;;;;;;;1.13;0.20;;;24.90;45.50;;;;;;4881804;28;87447;-70
2023/04/23 10:41:41;;;;;;;1.20;0.38;;;24.80;44.30;;;;;;4877425;28;87214;-70
2023/04/23 10:44:11;;;;;;;1.50;0.40;;;24.60;44.30;;;;;;4883290;28;87207;-70
2023/04/23 10:46:37;;;;;;;1.13;0.32;;;24.40;46.10;;;;;;4888941;28;87578;-70
2023/04/23 10:49:15;;;;;;;0.90;0.25;;;24.10;46.00;;;;;;4885213;28;87519;-70
2023/04/23 10:51:44;;;;;;;0.57;0.13;;;23.80;46.00;;;;;;4882063;28;87516;-70
2023/04/23 10:54:10;;;;;;;;;;;23.50;45.90;;;;;;4881356;28;88088;-70
2023/04/23 10:56:42;;;;;;;1.48;0.47;;;23.40;46.70;;;;;;4880927;28;87209;-70
2023/04/23 10:59:21;;;;;;;1.05;0.20;;;23.50;48.10;;;;;;4873998;28;88707;-70
2023/04/23 11:01:48;;;;;;;1.00;0.30;;;23.40;47.10;;;;;;4881114;28;87421;-70
2023/04/23 11:04:28;;;;;;;1.73;0.32;;;23.30;47.60;;;;;;4880996;28;88329;-70
2023/04/23 11:06:56;;;;;;;1.25;0.30;;;23.50;47.50;;;;;;4880311;28;87833;-70
2023/04/23 11:10:01;;;;;;;1.40;0.30;;;23.50;49.10;;;;;;4881116;28;87416;-70
2023/04/23 11:12:27;;;;;;;2.35;0.20;;;23.20;46.70;;;;;;4850153;28;87654;-70
2023/04/23 11:14:54;;;;;;;1.73;0.30;;;23.00;47.10;;;;;;4879704;28;87527;-70
2023/04/23 11:17:42;;;;;;;1.27;0.32;;;22.80;49.00;;;;;;4880370;28;87717;-70
2023/04/23 11:20:14;;;;;;;;;;;23.00;49.40;;;;;;4874770;28;87756;-70
2023/04/23 11:22:43;;;;;;;1.50;0.43;;;23.20;50.30;;;;;;4882351;28;87556;-70
2023/04/23 11:25:10;;;;;;;1.50;0.32;;;23.20;50.30;;;;;;4879847;28;89032;-70
2023/04/23 11:27:43;;;;;;;1.52;0.47;;;23.40;49.10;;;;;;4881085;28;89514;-70
2023/04/23 11:30:16;;;;;;;2.75;0.65;;;23.70;47.90;;;;;;4881392;28;87877;-70
2023/04/23 11:32:45;;;;;;;1.92;0.50;;;24.00;50.30;;;;;;4880485;28;87181;-70
2023/04/23 11:35:14;;;;;;;;;;;24.70;49.90;;;;;;4880055;28;88426;-70
2023/04/23 11:37:40;;;;;;;1.23;0.40;;;25.10;47.80;;;;;;4882468;28;87499;-70
2023/04/23 11:40:12;;;;;;;2.05;0.57;;;25.30;48.20;;;;;;4880966;28;87373;-70
2023/04/23 11:42:46;;;;;;;1.88;0.30;;;25.30;46.70;;;;;;4880695;28;86794;-71
2023/04/23 11:45:14;;;;;;;1.27;0.43;;;25.20;47.00;;;;;;4879917;28;88155;-70
2023/04/23 11:47:40;;;;;;;1.58;0.38;;;24.90;45.60;;;;;;4871577;28;88455;-70
2023/04/23 11:50:07;;;;;;;1.67;0.32;;;24.80;48.20;;;;;;4868587;28;88494;-71
2023/04/23 11:52:33;;;;;;;1.85;0.77;;;24.50;48.80;;;;;;4879229;28;87757;-70
2023/04/23 11:55:03;;;;;;;2.28;0.63;;;24.40;50.40;;;;;;4877992;28;87995;-71
2023/04/23 11:57:29;;;;;;;1.25;0.30;;;24.30;50.00;;;;;;4878104;28;87719;-70
2023/04/23 11:59:55;;;;;;;4.07;0.93;;;24.10;50.00;;;;;;4877504;28;87142;-71
2023/04/23 12:02:23;;;;;;;6.80;1.00;;;24.10;51.80;;;;;;4878609;28;87772;-70
2023/04/23 12:04:48;;;;;;;1.58;0.63;;;24.30;51.60;;;;;;4877369;28;88210;-69
2023/04/23 12:07:14;;;;;;;2.03;0.65;;;24.30;49.70;;;;;;4878205;28;88062;-70
2023/04/23 12:09:40;;;;;;;1.35;0.35;;;24.50;52.30;;;;;;4878206;28;87383;-70
2023/04/23 12:12:05;;;;;;;4.85;0.80;;;24.50;49.60;;;;;;4879323;28;87044;-70
2023/04/23 12:14:32;;;;;;;1.95;0.63;;;24.20;54.10;;;;;;4878228;28;89023;-69
2023/04/23 12:17:08;;;;;;;1.90;0.32;;;24.00;51.40;;;;;;4877677;28;88143;-69
2023/04/23 12:19:33;;;;;;;2.13;0.63;;;23.80;52.60;;;;;;4878951;28;87359;-69
2023/04/23 12:22:01;;;;;;;1.40;0.63;;;23.50;52.00;;;;;;4878824;28;87458;-68
2023/04/23 12:24:44;;;;;;;1.98;0.57;;;23.80;51.60;;;;;;4869754;28;88104;-69
2023/04/23 12:27:14;;;;;;;1.38;0.30;;;23.80;50.40;;;;;;4875162;28;89185;-70
2023/04/23 12:29:40;;;;;;;2.63;0.30;;;23.80;51.50;;;;;;4877598;28;88439;-70
2023/04/23 12:32:10;;;;;;;5.63;1.30;;;23.70;51.80;;;;;;4879001;28;87941;-69
2023/04/23 12:34:35;;;;;;;2.45;0.70;;;24.00;52.00;;;;;;4877970;28;88585;-70
2023/04/23 12:37:06;;;;;;;3.08;0.77;;;24.20;51.90;;;;;;4877631;28;88087;-70
2023/04/23 12:39:33;;;;;;;1.83;0.38;;;24.30;50.50;;;;;;4875769;28;88056;-70
2023/04/23 12:42:06;;;;;;;1.50;0.50;;;24.20;50.40;;;;;;4870426;28;87495;-70
2023/04/23 12:44:36;;;;;;;1.40;0.40;;;24.10;50.10;;;;;;4878397;28;88312;-70
2023/04/23 12:47:03;;;;;;;4.65;0.90;;;24.00;51.00;;;;;;4879563;28;87817;-70
2023/04/23 12:49:30;;;;;;;2.20;0.45;;;24.30;52.10;;;;;;4877861;28;87561;-70
2023/04/23 12:51:59;;;;;;;2.90;0.50;;;24.60;50.80;;;;;;4878025;28;87464;-70
2023/04/23 12:54:32;;;;;;;2.38;0.60;;;24.50;50.30;;;;;;4875650;28;87648;-69
2023/04/23 12:57:01;;;;;;;1.58;0.63;;;24.40;49.70;;;;;;4874673;28;89398;-69
2023/04/23 12:59:27;;;;;;;2.75;0.30;;;24.50;50.70;;;;;;4877576;28;88982;-69
2023/04/23 13:01:53;;;;;;;5.88;0.85;;;24.50;50.80;;;;;;4872553;28;87782;-69
2023/04/23 13:04:19;;;;;;;1.95;0.55;;;24.60;51.30;;;;;;4876225;28;89530;-69
2023/04/23 13:06:45;;;;;;;1.08;0.35;;;24.60;50.10;;;;;;4873533;28;89346;-70
2023/04/23 13:09:11;;;;;;;5.30;1.52;;;24.40;51.80;;;;;;4871405;28;89157;-67
2023/04/23 13:11:38;;;;;;;7.05;2.05;;;24.40;54.00;;;;;;4878292;28;88578;-66
2023/04/23 13:14:04;;;;;;;3.42;0.82;;;24.40;55.20;;;;;;4875071;28;88813;-73
2023/04/23 13:16:31;;;;;;;1.85;0.40;;;24.00;52.80;;;;;;4872971;28;87591;-71
2023/04/23 13:18:56;;;;;;;2.53;0.95;;;23.60;50.70;;;;;;4875620;28;87673;-70
2023/04/23 13:21:22;;;;;;;1.83;0.40;;;23.20;51.20;;;;;;4879843;28;87727;-71
2023/04/23 13:23:49;;;;;;;2.30;0.52;;;22.80;51.90;;;;;;4873791;28;88391;-72
2023/04/23 13:26:15;;;;;;;2.40;0.45;;;22.70;52.90;;;;;;4872318;28;87497;-72
2023/04/23 13:28:41;;;;;;;2.88;0.68;;;22.90;53.70;;;;;;4873533;28;90353;-72
2023/04/23 13:31:06;;;;;;;1.33;0.30;;;23.10;53.10;;;;;;4881491;28;87546;-71
2023/04/23 13:33:32;;;;;;;2.28;0.52;;;23.20;53.00;;;;;;4880087;28;88118;-71
2023/04/23 13:36:00;;;;;;;2.88;0.60;;;23.30;53.20;;;;;;4870290;28;87890;-71
2023/04/23 13:38:26;;;;;;;2.80;0.40;;;23.40;53.20;;;;;;4877412;28;89380;-71
2023/04/23 13:40:52;;;;;;;1.48;0.32;;;23.40;53.30;;;;;;4880994;28;87460;-71
2023/04/23 13:43:18;;;;;;;4.07;1.00;;;23.50;55.20;;;;;;4874628;28;87939;-70
2023/04/23 13:45:45;;;;;;;1.27;0.40;;;23.40;53.90;;;;;;4879163;28;87012;-70
2023/04/23 13:48:12;;;;;;;1.42;0.55;;;23.40;53.30;;;;;;4874069;28;87603;-70
2023/04/23 13:50:38;;;;;;;2.45;0.70;;;23.20;53.70;;;;;;4881104;28;87627;-71
2023/04/23 13:53:03;;;;;;;1.95;0.60;;;23.20;54.20;;;;;;4874876;28;88806;-70
2023/04/23 13:55:30;;;;;;;0.95;0.40;;;23.10;53.60;;;;;;4878382;28;89446;-70
2023/04/23 13:57:57;;;;;;;1.55;0.32;;;22.90;52.30;;;;;;4879281;28;87420;-72
2023/04/23 14:00:24;;;;;;;1.60;0.40;;;22.80;54.10;;;;;;4877485;28;87732;-71
2023/04/23 14:02:49;;;;;;;3.47;0.85;;;22.60;53.70;;;;;;4867761;28;90249;-71
2023/04/23 14:05:15;;;;;;;2.20;0.50;;;22.60;56.30;;;;;;4883318;28;88296;-72
2023/04/23 14:07:41;;;;;;;3.60;0.43;;;22.50;55.20;;;;;;4876663;28;88383;-71
2023/04/23 14:10:07;;;;;;;2.25;0.63;;;22.40;54.80;;;;;;4871506;28;86818;-71
2023/04/23 14:12:32;;;;;;;1.52;0.57;;;22.20;55.00;;;;;;4865189;28;88703;-71
2023/04/23 14:14:58;;;;;;;3.75;0.47;;;22.20;54.90;;;;;;4875113;28;87924;-75
2023/04/23 14:17:24;;;;;;;2.45;0.75;;;22.20;55.30;;;;;;4864934;28;90657;-72
2023/04/23 14:19:50;;;;;;;2.05;0.43;;;22.50;56.20;;;;;;4879655;28;87590;-72
2023/04/23 14:22:15;;;;;;;1.92;0.45;;;22.70;54.70;;;;;;4877371;28;90265;-71
2023/04/23 14:24:48;;;;;;;3.75;0.73;;;22.70;54.80;;;;;;4877439;28;87880;-71
2023/04/23 14:27:14;;;;;;;1.15;0.40;;;22.70;54.50;;;;;;4865300;28;89453;-72
2023/04/23 14:29:55;;;;;;;1.83;0.55;;;22.60;54.90;;;;;;4867273;28;87666;-71
2023/04/23 14:32:21;;;;;;;1.83;0.43;;;22.50;55.10;;;;;;4871941;28;88092;-71
2023/04/23 14:34:46;;;;;;;2.08;0.52;;;22.30;55.40;;;;;;4867162;28;88711;-70
2023/04/23 14:37:12;;;;;;;2.97;1.23;;;22.10;56.60;;;;;;4854776;28;88661;-66
2023/04/23 14:39:39;;;;;;;2.28;0.52;;;22.20;63.30;;;;;;4872474;28;88862;-67
2023/04/23 14:42:05;;;;;;;1.40;0.40;;;22.40;56.60;;;;;;4872636;28;89118;-66
2023/04/23 14:44:31;;;;;;;7.20;1.08;;;22.30;55.70;;;;;;4876319;28;88328;-66
2023/04/23 14:46:56;;;;;;;2.03;0.50;;;22.10;59.90;;;;;;4878803;28;87797;-71
2023/04/23 14:49:23;;;;;;;1.40;0.52;;;22.10;54.40;;;;;;4869987;28;89411;-71
2023/04/23 14:51:53;;;;;;;1.70;0.30;;;21.80;54.40;;;;;;4868648;28;89068;-71
2023/04/23 14:54:19;;;;;;;2.67;0.75;;;21.40;54.90;;;;;;4875706;28;89396;-70
2023/04/23 14:56:45;;;;;;;1.70;0.43;;;21.20;55.70;;;;;;4873016;28;87473;-69
2023/04/23 14:59:11;;;;;;;3.17;0.55;;;21.10;55.30;;;;;;4877412;28;87038;-70
2023/04/23 15:01:37;;;;;;;2.40;0.60;;;21.00;56.10;;;;;;4877048;28;88701;-69
2023/04/23 15:04:03;;;;;;;3.00;0.65;;;20.90;56.00;;;;;;4875094;28;87959;-70
2023/04/23 15:06:28;;;;;;;3.20;0.45;;;20.80;55.40;;;;;;4872965;28;90133;-72
2023/04/23 15:08:54;;;;;;;2.15;0.70;;;20.50;56.40;;;;;;4866094;28;88862;-70
2023/04/23 15:11:20;;;;;;;2.03;0.50;;;20.50;56.50;;;;;;4874864;28;90393;-70
2023/04/23 15:13:54;;;;;;;1.67;0.50;;;20.30;56.10;;;;;;4874008;28;89134;-70
2023/04/23 15:16:31;;;;;;;3.88;0.55;;;20.20;56.50;;;;;;4867616;28;87598;-72
2023/04/23 15:18:59;;;;;;;1.70;0.47;;;19.90;57.90;;;;;;4875928;28;88204;-71
2023/04/23 15:21:25;;;;;;;1.80;0.45;;;19.80;57.90;;;;;;4874116;28;88577;-71
2023/04/23 15:23:51;;;;;;;1.42;0.63;;;19.60;58.60;;;;;;4873081;28;88567;-69
2023/04/23 15:26:18;;;;;;;3.08;1.00;;;19.50;58.70;;;;;;4869797;28;87424;-70
2023/04/23 15:28:44;;;;;;;4.28;0.70;;;19.40;59.10;;;;;;4875528;28;89365;-70
2023/04/23 15:31:10;;;;;;;1.80;0.50;;;19.30;59.50;;;;;;4873630;28;89163;-70
2023/04/23 15:33:36;;;;;;;2.42;1.00;;;19.10;60.00;;;;;;4876735;28;88778;-70
2023/04/23 15:36:02;;;;;;;2.95;1.02;;;19.00;61.50;;;;;;4872067;28;88388;-71
2023/04/23 15:38:28;;;;;;;4.75;1.10;;;18.80;62.00;;;;;;4876348;28;87398;-71
2023/04/23 15:40:56;;;;;;;5.60;1.60;;;18.80;62.70;;;;;;4876498;28;87764;-71
2023/04/23 15:43:22;;;;;;;4.25;0.85;;;18.70;64.20;;;;;;4874316;28;88146;-70
2023/04/23 15:45:48;;;;;;;3.53;1.27;;;18.60;65.80;;;;;;4868597;28;88626;-70
2023/04/23 15:48:15;;;;;;;3.97;0.60;;;18.50;67.20;;;;;;4876273;28;86708;-71